createdAt,value
2018-01-07T00:00:19.338Z,0.7
2018-01-07T00:02:19.118Z,0.8
2018-01-07T00:04:18.911Z,0.8
2018-01-07T00:06:18.513Z,0.6
2018-01-07T00:08:19.266Z,0.8
2018-01-07T00:10:19.487Z,0.6
2018-01-07T00:12:19.236Z,0.4
2018-01-07T00:14:19.000Z,0.6
2018-01-07T00:16:18.550Z,0.7
2018-01-07T00:18:19.379Z,0.5
2018-01-07T00:20:19.181Z,0.7
2018-01-07T00:22:18.941Z,0.5
2018-01-07T00:24:18.694Z,0.6
2018-01-07T00:26:19.040Z,0.4
2018-01-07T00:28:18.772Z,0.7
2018-01-07T00:30:18.535Z,0.8
2018-01-07T00:32:19.297Z,0.6
2018-01-07T00:34:19.049Z,0.5
2018-01-07T00:36:18.597Z,0.4
2018-01-07T00:38:19.354Z,0.9
2018-01-07T00:40:18.575Z,0.8
2018-01-07T00:42:19.318Z,0.6
2018-01-07T00:44:19.070Z,0.7
2018-01-07T00:46:18.620Z,0.4
2018-01-07T00:48:19.392Z,0.6
2018-01-07T00:50:19.240Z,0.8
2018-01-07T00:52:19.032Z,0.5
2018-01-07T00:54:18.822Z,0.8
2018-01-07T00:56:18.918Z,0.8
2018-01-07T00:58:18.668Z,0.4
2018-01-07T01:00:19.441Z,0.5
2018-01-07T01:02:19.202Z,0.5
2018-01-07T01:04:18.947Z,0.8
2018-01-07T01:06:18.508Z,0.7
2018-01-07T01:08:19.266Z,0.7
2018-01-07T01:10:18.486Z,0.6
2018-01-07T01:12:19.262Z,0.6
2018-01-07T01:14:19.031Z,1
2018-01-07T01:16:19.129Z,0.8
2018-01-07T01:18:18.945Z,0.5
2018-01-07T01:20:18.717Z,0.6
2018-01-07T01:22:18.468Z,0.7
2018-01-07T01:24:19.211Z,0.8
2018-01-07T01:26:19.321Z,1
2018-01-07T01:28:19.086Z,0.7
2018-01-07T01:30:18.833Z,0.5
2018-01-07T01:32:18.586Z,0.5
2018-01-07T01:34:19.344Z,0.5
2018-01-07T01:36:19.085Z,0.5
2018-01-07T01:38:18.865Z,0.9
2018-01-07T01:40:19.159Z,0.5
2018-01-07T01:42:18.746Z,0.5
2018-01-07T01:44:18.500Z,1
2018-01-07T01:46:19.051Z,0.7
2018-01-07T01:48:18.793Z,0.5
2018-01-07T01:50:18.562Z,0.8
2018-01-07T01:52:19.317Z,0.6
2018-01-07T01:54:19.074Z,0.7
2018-01-07T01:56:19.105Z,0.7
2018-01-07T01:58:18.861Z,0.4
2018-01-07T02:00:18.640Z,0.9
2018-01-07T02:02:19.423Z,0.5
2018-01-07T02:04:19.164Z,0.9
2018-01-07T02:06:19.322Z,1
2018-01-07T02:08:19.088Z,0.5
2018-01-07T02:10:19.316Z,0.8
2018-01-07T02:12:18.900Z,0.8
2018-01-07T02:14:18.630Z,0.7
2018-01-07T02:16:19.240Z,0.7
2018-01-07T02:18:19.036Z,1
2018-01-07T02:20:18.776Z,0.8
2018-01-07T02:22:19.431Z,0.7
2018-01-07T02:24:19.169Z,0.8
2018-01-07T02:26:18.727Z,0.5
2018-01-07T02:28:19.494Z,0.7
2018-01-07T02:30:19.286Z,0.7
2018-01-07T02:32:19.049Z,0.6
2018-01-07T02:34:18.803Z,0.6
2018-01-07T02:36:18.841Z,0.6
2018-01-07T02:38:18.623Z,0.6
2018-01-07T02:40:18.878Z,0.6
2018-01-07T02:42:18.616Z,0.7
2018-01-07T02:44:19.352Z,0.8
2018-01-07T02:46:18.944Z,0.6
2018-01-07T02:48:18.702Z,0.8
2018-01-07T02:50:19.460Z,0.9
2018-01-07T02:52:19.211Z,0.8
2018-01-07T02:54:19.000Z,0.7
2018-01-07T02:56:19.034Z,0.9
2018-01-07T02:58:18.776Z,0.6
2018-01-07T03:00:18.558Z,0.8
2018-01-07T03:02:19.315Z,1
2018-01-07T03:04:19.084Z,0.6
2018-01-07T03:06:19.441Z,0.8
2018-01-07T03:08:19.175Z,0.9
2018-01-07T03:10:19.392Z,0.7
2018-01-07T03:12:18.986Z,0.6
2018-01-07T03:14:18.742Z,0.7
2018-01-07T03:16:18.462Z,0.7
2018-01-07T03:18:19.274Z,0.6
2018-01-07T03:20:19.035Z,1.1
2018-01-07T03:22:18.554Z,1
2018-01-07T03:24:19.311Z,0.6
2018-01-07T03:26:18.813Z,0.7
2018-01-07T03:28:18.549Z,0.6
2018-01-07T03:30:19.351Z,0.7
2018-01-07T03:32:19.120Z,0.6
2018-01-07T03:34:18.883Z,0.8
2018-01-07T03:36:18.851Z,0.8
2018-01-07T03:38:18.598Z,0.6
2018-01-07T03:40:18.856Z,0.6
2018-01-07T03:42:18.602Z,0.6
2018-01-07T03:44:19.335Z,0.7
2018-01-07T03:46:18.824Z,0.5
2018-01-07T03:48:18.602Z,0.6
2018-01-07T03:50:19.395Z,0.6
2018-01-07T03:52:19.175Z,0.6
2018-01-07T03:54:18.924Z,0.7
2018-01-07T03:56:18.640Z,0.9
2018-01-07T03:58:19.393Z,0.4
2018-01-07T04:00:19.162Z,0.4
2018-01-07T04:02:18.893Z,0.6
2018-01-07T04:04:18.668Z,0.5
2018-01-07T04:06:18.728Z,0.6
2018-01-07T04:08:19.464Z,0.6
2018-01-07T04:10:18.730Z,0.4
2018-01-07T04:12:18.505Z,0.4
2018-01-07T04:14:19.314Z,0.2
2018-01-07T04:16:19.346Z,0.6
2018-01-07T04:18:19.184Z,0.4
2018-01-07T04:20:18.950Z,0.3
2018-01-07T04:22:18.694Z,0.3
2018-01-07T04:24:19.455Z,0.5
2018-01-07T04:26:19.484Z,0.4
2018-01-07T04:28:19.247Z,0.3
2018-01-07T04:30:19.011Z,0.3
2018-01-07T04:32:18.770Z,0.5
2018-01-07T04:34:18.501Z,0.5
2018-01-07T04:36:18.672Z,0.3
2018-01-07T04:38:19.407Z,0.5
2018-01-07T04:40:18.627Z,0.2
2018-01-07T04:42:19.371Z,0.3
2018-01-07T04:44:19.130Z,0.5
2018-01-07T04:46:19.273Z,0.4
2018-01-07T04:48:18.994Z,0.4
2018-01-07T04:50:18.764Z,0.5
2018-01-07T04:52:18.510Z,0.6
2018-01-07T04:54:19.276Z,0.3
2018-01-07T04:56:18.775Z,0.5
2018-01-07T04:58:18.531Z,0.4
2018-01-07T05:00:19.287Z,0.5
2018-01-07T05:02:19.028Z,0.6
2018-01-07T05:04:18.779Z,0.4
2018-01-07T05:06:19.307Z,0.2
2018-01-07T05:08:19.058Z,0.2
2018-01-07T05:10:19.266Z,0.4
2018-01-07T05:12:19.027Z,0.5
2018-01-07T05:14:18.771Z,0.3
2018-01-07T05:16:18.756Z,0.4
2018-01-07T05:18:18.564Z,0.3
2018-01-07T05:20:19.311Z,0.3
2018-01-07T05:22:19.059Z,0.2
2018-01-07T05:24:18.802Z,0.3
2018-01-07T05:26:19.035Z,0.6
2018-01-07T05:28:18.774Z,0.6
2018-01-07T05:30:18.535Z,0.4
2018-01-07T05:32:19.276Z,0.7
2018-01-07T05:34:19.007Z,0.4
2018-01-07T05:36:19.076Z,0.5
2018-01-07T05:38:18.828Z,0.7
2018-01-07T05:40:19.057Z,0.3
2018-01-07T05:42:18.805Z,0.3
2018-01-07T05:44:18.571Z,0.2
2018-01-07T05:46:18.619Z,0.4
2018-01-07T05:48:19.359Z,0.3
2018-01-07T05:50:19.196Z,0.3
2018-01-07T05:52:18.925Z,0.3
2018-01-07T05:54:18.667Z,0.2
2018-01-07T05:56:18.701Z,0.1
2018-01-07T05:58:19.463Z,0.5
2018-01-07T06:00:19.242Z,0.5
2018-01-07T06:02:19.069Z,0.6
2018-01-07T06:04:18.809Z,0.4
2018-01-07T06:06:19.371Z,0.4
2018-01-07T06:08:19.125Z,0.4
2018-01-07T06:10:19.333Z,0.3
2018-01-07T06:12:19.121Z,0.3
2018-01-07T06:14:18.852Z,0.4
2018-01-07T06:16:19.400Z,0.4
2018-01-07T06:18:19.215Z,0.4
2018-01-07T06:20:18.969Z,0.2
2018-01-07T06:22:18.706Z,0.3
2018-01-07T06:24:19.459Z,0.5
2018-01-07T06:26:18.530Z,0.3
2018-01-07T06:28:19.279Z,0.3
2018-01-07T06:30:19.197Z,0.6
2018-01-07T06:32:18.931Z,0.3
2018-01-07T06:34:18.677Z,0.3
2018-01-07T06:36:18.747Z,0.4
2018-01-07T06:38:18.488Z,0.5
2018-01-07T06:40:18.699Z,0.2
2018-01-07T06:42:19.469Z,0.3
2018-01-07T06:44:19.230Z,0.3
2018-01-07T06:46:19.254Z,0.2
2018-01-07T06:48:18.753Z,0.3
2018-01-07T06:50:18.517Z,0.4
2018-01-07T06:52:19.288Z,0.3
2018-01-07T06:54:19.027Z,0.3
2018-01-07T06:56:18.694Z,0.3
2018-01-07T06:58:19.469Z,0.3
2018-01-07T07:00:19.219Z,0.4
2018-01-07T07:02:18.975Z,0.3
2018-01-07T07:04:18.740Z,0.3
2018-01-07T07:06:18.564Z,0.4
2018-01-07T07:08:19.299Z,0.5
2018-01-07T07:10:18.512Z,0.7
2018-01-07T07:12:19.248Z,0.3
2018-01-07T07:14:18.989Z,0.2
2018-01-07T07:16:19.046Z,0.2
2018-01-07T07:18:18.865Z,0.4
2018-01-07T07:20:18.637Z,0.3
2018-01-07T07:22:19.372Z,0.3
2018-01-07T07:24:19.116Z,0.6
2018-01-07T07:26:18.688Z,0.3
2018-01-07T07:28:19.450Z,0.2
2018-01-07T07:30:19.197Z,0.6
2018-01-07T07:32:18.947Z,0.4
2018-01-07T07:34:18.668Z,0.3
2018-01-07T07:36:19.239Z,0.4
2018-01-07T07:38:18.981Z,0.4
2018-01-07T07:40:19.204Z,0.5
2018-01-07T07:42:18.942Z,0.3
2018-01-07T07:44:18.673Z,0.5
2018-01-07T07:46:19.264Z,0.4
2018-01-07T07:48:19.047Z,0.5
2018-01-07T07:50:18.794Z,0.4
2018-01-07T07:52:18.550Z,0.4
2018-01-07T07:54:19.295Z,0.4
2018-01-07T07:56:18.896Z,0.3
2018-01-07T07:58:18.653Z,0.3
2018-01-07T08:00:19.391Z,0.6
2018-01-07T08:02:19.130Z,0.5
2018-01-07T08:04:18.875Z,0.6
2018-01-07T08:06:18.974Z,0.7
2018-01-07T08:08:18.731Z,0.7
2018-01-07T08:10:18.954Z,1.2
2018-01-07T08:12:18.710Z,1.3
2018-01-07T08:14:19.432Z,1.4
2018-01-07T08:16:18.942Z,1.6
2018-01-07T08:18:18.780Z,1.4
2018-01-07T08:20:18.624Z,1.3
2018-01-07T08:22:19.408Z,1.6
2018-01-07T08:24:19.206Z,1.6
2018-01-07T08:26:18.879Z,1.1
2018-01-07T08:28:18.612Z,1.2
2018-01-07T08:30:19.372Z,1.2
2018-01-07T08:32:19.137Z,1.6
2018-01-07T08:34:18.900Z,2
2018-01-07T08:36:19.063Z,1.7
2018-01-07T08:38:18.811Z,1.6
2018-01-07T08:40:19.038Z,1.6
2018-01-07T08:42:18.645Z,1.5
2018-01-07T08:44:19.409Z,1.4
2018-01-07T08:46:18.962Z,1.8
2018-01-07T08:48:18.701Z,1.6
2018-01-07T08:50:19.452Z,1.5
2018-01-07T08:52:19.137Z,1.3
2018-01-07T08:54:18.925Z,1.4
2018-01-07T08:56:18.737Z,2.7
2018-01-07T08:58:18.463Z,1.4
2018-01-07T09:00:19.210Z,1.9
2018-01-07T09:02:18.940Z,1.5
2018-01-07T09:04:18.703Z,2.1
2018-01-07T09:06:18.943Z,1.8
2018-01-07T09:08:18.709Z,1.5
2018-01-07T09:10:18.924Z,1.2
2018-01-07T09:12:18.658Z,0.9
2018-01-07T09:14:19.442Z,1.6
2018-01-07T09:16:18.490Z,1.1
2018-01-07T09:18:19.312Z,2
2018-01-07T09:20:19.091Z,1.3
2018-01-07T09:22:18.844Z,1.4
2018-01-07T09:24:18.620Z,1.2
2018-01-07T09:26:18.816Z,1.5
2018-01-07T09:28:18.545Z,1.4
2018-01-07T09:30:19.271Z,1.3
2018-01-07T09:32:19.011Z,1
2018-01-07T09:34:18.741Z,1.2
2018-01-07T09:36:19.289Z,1.2
2018-01-07T09:38:19.022Z,0.6
2018-01-07T09:40:19.243Z,0.8
2018-01-07T09:42:18.861Z,0.7
2018-01-07T09:44:18.612Z,0.9
2018-01-07T09:46:18.896Z,1
2018-01-07T09:48:18.643Z,0.9
2018-01-07T09:50:19.410Z,0.5
2018-01-07T09:52:19.152Z,0.8
2018-01-07T09:54:18.899Z,0.7
2018-01-07T09:56:19.018Z,0.6
2018-01-07T09:58:18.773Z,0.6
2018-01-07T10:00:18.542Z,0.8
2018-01-07T10:02:19.285Z,1
2018-01-07T10:04:19.009Z,1.3
2018-01-07T10:06:19.139Z,0.5
2018-01-07T10:08:18.869Z,0.6
2018-01-07T10:10:19.087Z,0.9
2018-01-07T10:12:18.830Z,0.7
2018-01-07T10:14:18.567Z,0.5
2018-01-07T10:16:19.203Z,0.6
2018-01-07T10:18:19.007Z,0.9
2018-01-07T10:20:18.752Z,0.7
2018-01-07T10:22:18.492Z,0.6
2018-01-07T10:24:19.228Z,0.4
2018-01-07T10:26:19.343Z,0.5
2018-01-07T10:28:19.110Z,0.6
2018-01-07T10:30:18.840Z,0.5
2018-01-07T10:32:18.570Z,0.7
2018-01-07T10:34:19.290Z,0.5
2018-01-07T10:36:19.333Z,0.5
2018-01-07T10:38:19.105Z,0.6
2018-01-07T10:40:19.319Z,0.6
2018-01-07T10:42:19.056Z,0.5
2018-01-07T10:44:18.807Z,0.6
2018-01-07T10:46:18.821Z,0.8
2018-01-07T10:48:18.582Z,0.6
2018-01-07T10:50:19.325Z,0.8
2018-01-07T10:52:19.062Z,0.9
2018-01-07T10:54:18.837Z,0.6
2018-01-07T10:56:19.011Z,0.6
2018-01-07T10:58:18.769Z,0.6
2018-01-07T11:00:18.538Z,0.6
2018-01-07T11:02:19.297Z,0.3
2018-01-07T11:04:19.023Z,0.5
2018-01-07T11:06:18.670Z,0.5
2018-01-07T11:08:19.410Z,0.7
2018-01-07T11:10:18.666Z,3.8
2018-01-07T11:12:19.412Z,2.4
2018-01-07T11:14:19.160Z,0.7
2018-01-07T11:16:19.275Z,0.4
2018-01-07T11:18:19.085Z,0.5
2018-01-07T11:20:18.843Z,0.9
2018-01-07T11:22:18.580Z,0.8
2018-01-07T11:24:19.345Z,0.7
2018-01-07T11:26:19.076Z,0.5
2018-01-07T11:28:18.848Z,0.8
2018-01-07T11:30:18.595Z,0.4
2018-01-07T11:32:19.350Z,1.1
2018-01-07T11:34:19.106Z,0.8
2018-01-07T11:36:18.788Z,0.8
2018-01-07T11:38:18.530Z,0.7
2018-01-07T11:40:18.792Z,1.3
2018-01-07T11:42:18.538Z,0.6
2018-01-07T11:44:19.321Z,0.5
2018-01-07T11:46:18.996Z,0.7
2018-01-07T11:48:18.725Z,0.8
2018-01-07T11:50:19.476Z,0.6
2018-01-07T11:52:19.218Z,0.4
2018-01-07T11:54:18.984Z,0.9
2018-01-07T11:56:19.144Z,0.5
2018-01-07T11:58:18.928Z,1.1
2018-01-07T12:00:18.686Z,0.6
2018-01-07T12:02:19.426Z,0.6
2018-01-07T12:04:19.180Z,0.8
2018-01-07T12:06:18.711Z,0.7
2018-01-07T12:08:19.436Z,0.5
2018-01-07T12:10:18.687Z,0.7
2018-01-07T12:12:19.450Z,0.5
2018-01-07T12:14:19.194Z,0.5
2018-01-07T12:16:18.888Z,0.9
2018-01-07T12:18:18.721Z,1
2018-01-07T12:20:18.485Z,0.8
2018-01-07T12:22:19.246Z,0.7
2018-01-07T12:24:19.032Z,0.6
2018-01-07T12:26:19.146Z,0.7
2018-01-07T12:28:18.940Z,0.4
2018-01-07T12:30:18.706Z,0.5
2018-01-07T12:32:19.442Z,0.7
2018-01-07T12:34:19.198Z,0.4
2018-01-07T12:36:19.283Z,0.5
2018-01-07T12:38:19.031Z,0.3
2018-01-07T12:40:19.234Z,0.8
2018-01-07T12:42:18.989Z,0.9
2018-01-07T12:44:18.759Z,0.4
2018-01-07T12:46:18.800Z,0.6
2018-01-07T12:48:18.557Z,0.9
2018-01-07T12:50:19.300Z,0.5
2018-01-07T12:52:19.067Z,0.4
2018-01-07T12:54:18.812Z,0.6
2018-01-07T12:56:18.901Z,0.6
2018-01-07T12:58:18.657Z,0.6
2018-01-07T13:00:19.466Z,0.7
2018-01-07T13:02:19.198Z,0.9
2018-01-07T13:04:18.950Z,0.7
2018-01-07T13:06:19.049Z,0.4
2018-01-07T13:08:18.783Z,0.7
2018-01-07T13:10:18.992Z,1.2
2018-01-07T13:12:18.736Z,1.1
2018-01-07T13:14:18.486Z,0.9
2018-01-07T13:16:18.514Z,0.5
2018-01-07T13:18:19.359Z,0.8
2018-01-07T13:20:19.178Z,1.2
2018-01-07T13:22:18.920Z,0.6
2018-01-07T13:24:18.665Z,0.7
2018-01-07T13:26:18.681Z,0.7
2018-01-07T13:28:19.406Z,0.4
2018-01-07T13:30:19.166Z,0.5
2018-01-07T13:32:18.894Z,0.7
2018-01-07T13:34:18.633Z,0.5
2018-01-07T13:36:18.740Z,0.5
2018-01-07T13:38:18.469Z,0.6
2018-01-07T13:40:18.690Z,0.8
2018-01-07T13:42:19.434Z,0.6
2018-01-07T13:44:19.173Z,0.4
2018-01-07T13:46:18.557Z,0.7
2018-01-07T13:48:19.296Z,0.5
2018-01-07T13:50:19.066Z,1.1
2018-01-07T13:52:18.819Z,0.9
2018-01-07T13:54:18.565Z,1.7
2018-01-07T13:56:19.075Z,1.4
2018-01-07T13:58:18.830Z,1.3
2018-01-07T14:00:18.578Z,0.7
2018-01-07T14:02:19.331Z,0.8
2018-01-07T14:04:19.063Z,1.4
2018-01-07T14:06:19.329Z,0.9
2018-01-07T14:08:19.078Z,0.7
2018-01-07T14:10:19.343Z,0.7
2018-01-07T14:12:19.097Z,0.6
2018-01-07T14:14:18.823Z,0.8
2018-01-07T14:16:19.372Z,0.7
2018-01-07T14:18:19.184Z,0.7
2018-01-07T14:20:18.975Z,0.8
2018-01-07T14:22:18.742Z,0.7
2018-01-07T14:24:18.504Z,0.6
2018-01-07T14:26:18.590Z,0.7
2018-01-07T14:28:19.372Z,0.7
2018-01-07T14:30:19.144Z,0.6
2018-01-07T14:32:18.941Z,0.7
2018-01-07T14:34:18.717Z,0.7
2018-01-07T14:36:18.740Z,1
2018-01-07T14:38:18.502Z,1.3
2018-01-07T14:40:18.708Z,1.2
2018-01-07T14:42:18.482Z,1.8
2018-01-07T14:44:19.279Z,1.6
2018-01-07T14:46:18.841Z,0.8
2018-01-07T14:48:18.674Z,1
2018-01-07T14:50:18.503Z,0.9
2018-01-07T14:52:19.252Z,0.6
2018-01-07T14:54:19.058Z,0.8
2018-01-07T14:56:18.556Z,0.9
2018-01-07T14:58:19.312Z,1
2018-01-07T15:00:19.070Z,0.8
2018-01-07T15:02:18.820Z,1.5
2018-01-07T15:04:18.578Z,1.3
2018-01-07T15:06:19.086Z,0.9
2018-01-07T15:08:18.819Z,1.5
2018-01-07T15:10:19.078Z,1
2018-01-07T15:12:18.670Z,1.5
2018-01-07T15:14:19.398Z,1.2
2018-01-07T15:16:18.919Z,0.9
2018-01-07T15:18:18.758Z,1
2018-01-07T15:20:18.538Z,1.1
2018-01-07T15:22:19.315Z,1.8
2018-01-07T15:24:19.089Z,1.6
2018-01-07T15:26:18.629Z,1.5
2018-01-07T15:28:19.384Z,2.6
2018-01-07T15:30:19.140Z,3.1
2018-01-07T15:32:18.865Z,3.7
2018-01-07T15:34:18.608Z,3.9
2018-01-07T15:36:19.261Z,3.6
2018-01-07T15:38:19.021Z,3.1
2018-01-07T15:40:19.216Z,3
2018-01-07T15:42:18.970Z,2.9
2018-01-07T15:44:18.723Z,2.2
2018-01-07T15:46:19.385Z,3
2018-01-07T15:48:19.103Z,2.6
2018-01-07T15:50:18.860Z,2.9
2018-01-07T15:52:18.619Z,2.6
2018-01-07T15:54:19.438Z,1.9
2018-01-07T15:56:18.496Z,1.8
2018-01-07T15:58:19.249Z,1.9
2018-01-07T16:00:19.000Z,2
2018-01-07T16:02:19.021Z,2.8
2018-01-07T16:04:18.736Z,2.2
2018-01-07T16:06:18.794Z,1.3
2018-01-07T16:08:18.549Z,0.9
2018-01-07T16:10:18.902Z,2.2
2018-01-07T16:12:18.682Z,1.6
2018-01-07T16:14:19.447Z,1.4
2018-01-07T16:16:18.952Z,2.2
2018-01-07T16:18:18.752Z,2.1
2018-01-07T16:20:18.500Z,2.9
2018-01-07T16:22:18.657Z,1.3
2018-01-07T16:24:19.401Z,1.2
2018-01-07T16:26:18.898Z,1.9
2018-01-07T16:28:18.696Z,2.2
2018-01-07T16:30:19.446Z,1.6
2018-01-07T16:32:19.164Z,1.7
2018-01-07T16:34:18.897Z,1.9
2018-01-07T16:36:18.936Z,1.6
2018-01-07T16:38:18.674Z,1.9
2018-01-07T16:40:18.876Z,1.8
2018-01-07T16:42:18.639Z,1.3
2018-01-07T16:44:19.399Z,1.3
2018-01-07T16:46:19.133Z,1.3
2018-01-07T16:48:18.890Z,1.5
2018-01-07T16:50:18.660Z,1.7
2018-01-07T16:52:19.409Z,0.9
2018-01-07T16:54:19.154Z,1.6
2018-01-07T16:56:18.696Z,1.2
2018-01-07T16:58:19.451Z,1.6
2018-01-07T17:00:19.174Z,1
2018-01-07T17:02:18.899Z,2.1
2018-01-07T17:04:18.648Z,1.6
2018-01-07T17:06:19.142Z,1.2
2018-01-07T17:08:18.909Z,1.1
2018-01-07T17:10:19.116Z,1.2
2018-01-07T17:12:18.847Z,1.8
2018-01-07T17:14:18.597Z,1.2
2018-01-07T17:16:18.729Z,1.1
2018-01-07T17:18:18.538Z,1.7
2018-01-07T17:20:19.265Z,0.9
2018-01-07T17:22:19.017Z,1.2
2018-01-07T17:24:18.746Z,1.5
2018-01-07T17:26:18.750Z,2.1
2018-01-07T17:28:18.483Z,1.3
2018-01-07T17:30:19.241Z,1.7
2018-01-07T17:32:18.957Z,0.8
2018-01-07T17:34:18.701Z,1
2018-01-07T17:36:19.211Z,1.6
2018-01-07T17:38:18.923Z,1.5
2018-01-07T17:40:19.190Z,1.5
2018-01-07T17:42:18.926Z,1
2018-01-07T17:44:18.656Z,0.9
2018-01-07T17:46:18.658Z,1.5
2018-01-07T17:48:19.398Z,2.2
2018-01-07T17:50:19.121Z,1.7
2018-01-07T17:52:18.846Z,2.2
2018-01-07T17:54:18.574Z,1.5
2018-01-07T17:56:18.611Z,1.9
2018-01-07T17:58:19.374Z,1.6
2018-01-07T18:00:19.287Z,1.7
2018-01-07T18:02:18.995Z,2.2
2018-01-07T18:04:18.714Z,1.9
2018-01-07T18:06:19.226Z,1.8
2018-01-07T18:08:18.959Z,1.3
2018-01-07T18:10:19.299Z,2.1
2018-01-07T18:12:19.047Z,1.2
2018-01-07T18:14:18.801Z,2.6
2018-01-07T18:16:19.031Z,1.7
2018-01-07T18:18:18.868Z,1.8
2018-01-07T18:20:18.638Z,1.7
2018-01-07T18:22:19.441Z,1.3
2018-01-07T18:24:19.199Z,1.8
2018-01-07T18:26:19.232Z,1.5
2018-01-07T18:28:18.980Z,1.3
2018-01-07T18:30:18.780Z,1.8
2018-01-07T18:32:18.569Z,2.1
2018-01-07T18:34:19.319Z,1.4
2018-01-07T18:36:18.903Z,1.3
2018-01-07T18:38:18.654Z,1.1
2018-01-07T18:40:18.868Z,1.1
2018-01-07T18:42:18.618Z,1.5
2018-01-07T18:44:19.363Z,1.2
2018-01-07T18:46:19.050Z,1.7
2018-01-07T18:48:18.768Z,1.5
2018-01-07T18:50:18.600Z,1.5
2018-01-07T18:52:19.351Z,1.5
2018-01-07T18:54:19.082Z,1.3
2018-01-07T18:56:18.744Z,1.4
2018-01-07T18:58:18.487Z,1.3
2018-01-07T19:00:19.237Z,1.6
2018-01-07T19:02:18.828Z,1.3
2018-01-07T19:04:18.618Z,1.7
2018-01-07T19:06:19.081Z,1.6
2018-01-07T19:08:18.870Z,0.8
2018-01-07T19:10:19.104Z,1.6
2018-01-07T19:12:18.831Z,2
2018-01-07T19:14:18.550Z,2.5
2018-01-07T19:16:19.026Z,1.5
2018-01-07T19:18:18.815Z,1.5
2018-01-07T19:20:18.606Z,1.3
2018-01-07T19:22:19.346Z,1.4
2018-01-07T19:24:19.093Z,1.4
2018-01-07T19:26:19.158Z,1.2
2018-01-07T19:28:18.867Z,1
2018-01-07T19:30:18.599Z,1.3
2018-01-07T19:32:19.337Z,1.9
2018-01-07T19:34:19.074Z,1.4
2018-01-07T19:36:18.686Z,1.7
2018-01-07T19:38:19.398Z,1.1
2018-01-07T19:40:18.573Z,1.8
2018-01-07T19:42:18.730Z,1.4
2018-01-07T19:44:18.450Z,1.6
2018-01-07T19:46:19.450Z,1.2
2018-01-07T19:48:19.173Z,1.5
2018-01-07T19:50:18.924Z,2
2018-01-07T19:52:18.679Z,1.4
2018-01-07T19:54:19.423Z,2.2
2018-01-07T19:56:18.930Z,2.1
2018-01-07T19:58:18.662Z,1.4
2018-01-07T20:00:19.392Z,2
2018-01-07T20:02:19.114Z,2.1
2018-01-07T20:04:18.864Z,1.8
2018-01-07T20:06:19.428Z,1.6
2018-01-07T20:08:19.168Z,2.3
2018-01-07T20:10:19.378Z,1.5
2018-01-07T20:12:19.106Z,2.2
2018-01-07T20:14:18.868Z,2.8
2018-01-07T20:16:18.865Z,2
2018-01-07T20:18:18.662Z,3
2018-01-07T20:20:19.401Z,2.6
2018-01-07T20:22:19.155Z,2.6
2018-01-07T20:24:18.910Z,2.9
2018-01-07T20:26:19.433Z,1.9
2018-01-07T20:28:19.173Z,2
2018-01-07T20:30:18.934Z,2.8
2018-01-07T20:32:18.683Z,2.8
2018-01-07T20:34:19.401Z,3.2
2018-01-07T20:36:18.535Z,2
2018-01-07T20:38:19.286Z,3
2018-01-07T20:40:19.494Z,1.7
2018-01-07T20:42:19.216Z,2.5
2018-01-07T20:44:18.949Z,2.7
2018-01-07T20:46:18.752Z,1.6
2018-01-07T20:48:18.500Z,2.4
2018-01-07T20:50:19.243Z,2.3
2018-01-07T20:52:18.963Z,2.2
2018-01-07T20:54:18.725Z,1.7
2018-01-07T20:56:18.942Z,2.4
2018-01-07T20:58:18.654Z,2
2018-01-07T21:00:19.381Z,3.2
2018-01-07T21:02:19.102Z,2.7
2018-01-07T21:04:18.836Z,2.7
2018-01-07T21:06:19.336Z,1.8
2018-01-07T21:08:19.071Z,1.7
2018-01-07T21:10:19.251Z,2.5
2018-01-07T21:12:18.990Z,2.8
2018-01-07T21:14:18.741Z,1.7
2018-01-07T21:16:19.420Z,1.4
2018-01-07T21:18:19.221Z,2
2018-01-07T21:20:19.104Z,1.6
2018-01-07T21:22:18.849Z,2.2
2018-01-07T21:24:18.613Z,2.3
2018-01-07T21:26:18.891Z,1.6
2018-01-07T21:28:18.640Z,2.3
2018-01-07T21:30:19.405Z,1.6
2018-01-07T21:32:19.150Z,2
2018-01-07T21:34:18.888Z,1.9
2018-01-07T21:36:19.377Z,3.1
2018-01-07T21:38:19.115Z,1.8
2018-01-07T21:40:19.465Z,2.2
2018-01-07T21:42:19.209Z,1.7
2018-01-07T21:44:18.961Z,1.9
2018-01-07T21:46:18.958Z,3.3
2018-01-07T21:48:18.691Z,3
2018-01-07T21:50:19.424Z,1.9
2018-01-07T21:52:19.178Z,2.2
2018-01-07T21:54:18.897Z,1.6
2018-01-07T21:56:18.901Z,1.5
2018-01-07T21:58:18.642Z,1.8
2018-01-07T22:00:19.368Z,2.7
2018-01-07T22:02:19.100Z,1.4
2018-01-07T22:04:18.845Z,2.4
2018-01-07T22:06:19.378Z,1.6
2018-01-07T22:08:19.109Z,1.9
2018-01-07T22:10:19.323Z,2.1
2018-01-07T22:12:18.911Z,1.9
2018-01-07T22:14:18.672Z,1.8
2018-01-07T22:16:19.183Z,2.5
2018-01-07T22:18:19.034Z,2.3
2018-01-07T22:20:18.858Z,2.6
2018-01-07T22:22:18.572Z,2.2
2018-01-07T22:24:19.306Z,2.8
2018-01-07T22:26:18.510Z,2.7
2018-01-07T22:28:19.235Z,2.2
2018-01-07T22:30:18.978Z,2.3
2018-01-07T22:32:18.721Z,2.2
2018-01-07T22:34:19.430Z,2.5
2018-01-07T22:36:19.430Z,2.9
2018-01-07T22:38:19.161Z,2.2
2018-01-07T22:40:19.371Z,2.1
2018-01-07T22:42:19.108Z,1.9
2018-01-07T22:44:18.868Z,2.4
2018-01-07T22:46:19.239Z,3
2018-01-07T22:48:18.983Z,2
2018-01-07T22:50:18.734Z,1.7
2018-01-07T22:52:19.459Z,2.3
2018-01-07T22:54:19.200Z,2.4
2018-01-07T22:56:19.407Z,2.6
2018-01-07T22:58:19.140Z,3.3
2018-01-07T23:00:18.898Z,2.2
2018-01-07T23:02:18.625Z,2.9
2018-01-07T23:04:19.371Z,3.3
2018-01-07T23:06:19.025Z,2.8
2018-01-07T23:08:18.758Z,2.6
2018-01-07T23:10:19.037Z,2.5
2018-01-07T23:12:18.735Z,2.6
2018-01-07T23:14:18.456Z,2.9
2018-01-07T23:16:18.485Z,2.2
2018-01-07T23:18:19.289Z,3.2
2018-01-07T23:20:19.031Z,2.5
2018-01-07T23:22:18.749Z,2.5
2018-01-07T23:24:18.477Z,2.6
2018-01-07T23:26:18.572Z,2.7
2018-01-07T23:28:19.314Z,2.7
2018-01-07T23:30:19.093Z,1.9
2018-01-07T23:32:18.865Z,2.2
2018-01-07T23:34:18.604Z,2.1
2018-01-07T23:36:18.714Z,2.1
2018-01-07T23:38:19.448Z,2.8
2018-01-07T23:40:18.811Z,2.4
2018-01-07T23:42:18.545Z,3.4
2018-01-07T23:44:19.270Z,2.4
2018-01-07T23:46:19.377Z,2
2018-01-07T23:48:19.123Z,2.6
2018-01-07T23:50:18.866Z,2.9
2018-01-07T23:52:18.620Z,3.1
2018-01-07T23:54:19.346Z,2.1
2018-01-07T23:56:18.549Z,3.3
2018-01-07T23:58:19.286Z,2.4
